Time;durP1;ratioP1;P1;durP2;ratioP2;P2;SDS_P1;SDS_P2;PMS_P1;PMS_P2;Temp;Humidity;BMP_temperature;BMP_pressure;BME280_temperature;BME280_humidity;BME280_pressure;Samples;Min_cycle;Max_cycle;Signal;HPM_P1;HPM_P2
2022/10/09 00:01:16;;;;;;;0.00;0.00;;;9.70;99.90;;;;;;5057967;28;20222;-87
2022/10/09 00:03:46;;;;;;;0.00;0.00;;;9.60;99.90;;;;;;5057356;28;20193;-87
2022/10/09 00:06:17;;;;;;;0.00;0.00;;;9.60;99.90;;;;;;5057696;28;20216;-87
2022/10/09 00:08:45;;;;;;;0.00;0.00;;;9.60;99.90;;;;;;5057370;28;20502;-87
2022/10/09 00:11:15;;;;;;;0.00;0.00;;;9.60;99.90;;;;;;5059986;28;20225;-87
2022/10/09 00:13:43;;;;;;;0.00;0.00;;;9.60;99.90;;;;;;5077383;28;20428;-87
2022/10/09 00:16:14;;;;;;;0.00;0.00;;;9.60;99.90;;;;;;5077770;28;20514;-87
2022/10/09 00:18:43;;;;;;;0.00;0.00;;;9.50;99.90;;;;;;5077967;28;20509;-88
2022/10/09 00:21:18;;;;;;;0.00;0.00;;;9.50;99.90;;;;;;5077829;28;20307;-87
2022/10/09 00:23:47;;;;;;;0.00;0.00;;;9.40;99.90;;;;;;5060152;28;20648;-87
2022/10/09 00:26:15;;;;;;;0.00;0.00;;;9.40;99.90;;;;;;5057388;28;20255;-87
2022/10/09 00:28:43;;;;;;;0.00;0.00;;;9.40;99.90;;;;;;5064037;28;20221;-87
2022/10/09 00:31:13;;;;;;;0.00;0.00;;;9.40;99.90;;;;;;5058323;28;20514;-88
2022/10/09 00:33:41;;;;;;;0.00;0.00;;;9.40;99.90;;;;;;5058065;28;20448;-87
2022/10/09 00:36:11;;;;;;;0.00;0.00;;;9.30;99.90;;;;;;5057869;28;20524;-88
2022/10/09 00:38:39;;;;;;;0.00;0.00;;;9.20;99.90;;;;;;5073455;28;20185;-88
2022/10/09 00:41:14;;;;;;;0.00;0.00;;;9.20;99.90;;;;;;5078497;28;20221;-87
2022/10/09 00:43:46;;;;;;;0.00;0.00;;;9.20;99.90;;;;;;5079914;28;20200;-87
2022/10/09 00:46:27;;;;;;;0.00;0.00;;;9.20;99.90;;;;;;5090026;28;20195;-86
2022/10/09 00:49:05;;;;;;;0.00;0.00;;;9.20;99.90;;;;;;5069070;28;20205;-86
2022/10/09 00:51:34;;;;;;;0.00;0.00;;;9.20;99.90;;;;;;5056382;28;20212;-87
2022/10/09 00:54:04;;;;;;;0.00;0.00;;;9.20;99.90;;;;;;5056496;28;20206;-84
2022/10/09 00:56:32;;;;;;;0.00;0.00;;;9.20;99.90;;;;;;5055502;28;20630;-85
2022/10/09 00:59:00;;;;;;;0.00;0.00;;;9.20;99.90;;;;;;5054365;28;20228;-85
2022/10/09 01:01:29;;;;;;;0.00;0.00;;;9.20;99.90;;;;;;5057218;28;20212;-86
2022/10/09 01:03:57;;;;;;;0.00;0.00;;;9.20;99.90;;;;;;5057410;28;20189;-85
2022/10/09 01:06:37;;;;;;;0.00;0.00;;;9.20;99.90;;;;;;5057645;28;20205;-85
2022/10/09 01:09:10;;;;;;;0.00;0.00;;;9.20;99.90;;;;;;5057121;28;20237;-85
2022/10/09 01:11:52;;;;;;;0.00;0.00;;;9.30;99.90;;;;;;5057785;28;20202;-86
2022/10/09 01:14:24;;;;;;;0.00;0.00;;;9.30;99.90;;;;;;5058150;28;20202;-84
2022/10/09 01:17:00;;;;;;;0.00;0.00;;;9.30;99.90;;;;;;5057235;28;20213;-86
2022/10/09 01:19:44;;;;;;;0.00;0.00;;;9.30;99.90;;;;;;5057699;28;20736;-85
2022/10/09 01:22:24;;;;;;;0.00;0.00;;;9.30;99.90;;;;;;5057301;28;20695;-85
2022/10/09 01:24:59;;;;;;;0.00;0.00;;;9.20;99.90;;;;;;5053725;28;20483;-85
2022/10/09 01:27:30;;;;;;;0.00;0.00;;;9.20;99.90;;;;;;5041731;28;20231;-85
2022/10/09 01:30:04;;;;;;;0.00;0.00;;;9.20;99.90;;;;;;5057695;28;20233;-85
2022/10/09 01:32:37;;;;;;;0.00;0.00;;;9.20;99.90;;;;;;5050845;28;20206;-85
2022/10/09 01:35:09;;;;;;;0.00;0.00;;;9.20;99.90;;;;;;5042209;28;20203;-85
2022/10/09 01:37:38;;;;;;;0.00;0.00;;;9.10;99.90;;;;;;5040725;28;20317;-85
2022/10/09 01:40:08;;;;;;;0.00;0.00;;;9.10;99.90;;;;;;5041842;28;20298;-85
2022/10/09 01:42:38;;;;;;;0.00;0.00;;;9.10;99.90;;;;;;5041599;28;20229;-85
2022/10/09 01:45:06;;;;;;;0.00;0.00;;;9.10;99.90;;;;;;5041539;28;20198;-86
2022/10/09 01:47:34;;;;;;;0.00;0.00;;;9.10;99.90;;;;;;5041739;28;20210;-85
2022/10/09 01:50:11;;;;;;;0.00;0.00;;;9.10;99.90;;;;;;5052087;28;20222;-84
2022/10/09 01:52:45;;;;;;;0.00;0.00;;;9.10;99.90;;;;;;5049302;28;20210;-85
2022/10/09 01:55:31;;;;;;;0.00;0.00;;;9.00;99.90;;;;;;5041774;28;20222;-85
2022/10/09 01:58:08;;;;;;;0.00;0.00;;;9.00;99.90;;;;;;5040518;28;20202;-85
2022/10/09 02:00:39;;;;;;;0.00;0.00;;;9.00;99.90;;;;;;5040092;28;20225;-85
2022/10/09 02:03:11;;;;;;;0.00;0.00;;;9.00;99.90;;;;;;5040178;28;20210;-86
2022/10/09 02:05:44;;;;;;;0.00;0.00;;;9.00;99.90;;;;;;5040746;28;20212;-85
2022/10/09 02:08:16;;;;;;;0.00;0.00;;;9.00;99.90;;;;;;5040181;28;20206;-86
2022/10/09 02:10:46;;;;;;;0.00;0.00;;;9.10;99.90;;;;;;5040108;28;20222;-86
2022/10/09 02:13:16;;;;;;;0.00;0.00;;;9.10;99.90;;;;;;5039863;28;20261;-85
2022/10/09 02:18:57;;;;;;;0.00;0.00;;;9.30;99.90;;;;;;5777143;22;20564;-86
2022/10/09 02:21:30;;;;;;;0.00;0.00;;;9.40;99.90;;;;;;5052650;28;20213;-86
2022/10/09 02:24:01;;;;;;;0.00;0.00;;;9.40;99.90;;;;;;5043226;28;20280;-87
2022/10/09 02:26:29;;;;;;;0.00;0.00;;;9.50;99.90;;;;;;5041967;28;20617;-86
2022/10/09 02:28:58;;;;;;;0.00;0.00;;;9.50;99.90;;;;;;5039751;28;20742;-86
2022/10/09 02:31:29;;;;;;;0.00;0.00;;;9.60;99.90;;;;;;5040819;28;20661;-86
2022/10/09 02:33:59;;;;;;;0.00;0.00;;;9.70;99.90;;;;;;5040309;28;20293;-86
2022/10/09 02:36:27;;;;;;;0.00;0.00;;;9.70;99.90;;;;;;5039362;28;20234;-85
2022/10/09 02:38:55;;;;;;;0.00;0.00;;;9.80;99.90;;;;;;5048887;28;20198;-85
2022/10/09 02:41:24;;;;;;;0.00;0.00;;;9.90;99.90;;;;;;5042518;28;20967;-86
2022/10/09 02:43:52;;;;;;;0.00;0.00;;;9.90;99.90;;;;;;5040298;28;20457;-86
2022/10/09 02:46:22;;;;;;;0.00;0.00;;;9.90;99.90;;;;;;5039003;28;20449;-86
2022/10/09 02:48:50;;;;;;;0.00;0.00;;;10.00;99.90;;;;;;5040014;28;20433;-86
2022/10/09 02:51:18;;;;;;;0.00;0.00;;;10.00;99.90;;;;;;5039800;28;20469;-86
2022/10/09 02:53:46;;;;;;;0.00;0.00;;;9.90;99.90;;;;;;5040144;28;20455;-86
2022/10/09 02:56:14;;;;;;;0.00;0.00;;;9.90;99.90;;;;;;5040774;28;20464;-86
2022/10/09 02:58:42;;;;;;;0.00;0.00;;;9.80;99.90;;;;;;5050248;28;20179;-84
2022/10/09 03:01:12;;;;;;;0.00;0.00;;;9.70;99.90;;;;;;5041385;28;20226;-85
2022/10/09 03:03:41;;;;;;;0.00;0.00;;;9.70;99.90;;;;;;5033573;28;20453;-86
2022/10/09 03:06:11;;;;;;;0.00;0.00;;;9.70;99.90;;;;;;5021472;28;20215;-85
2022/10/09 03:08:40;;;;;;;0.00;0.00;;;9.70;99.90;;;;;;5018915;28;20517;-86
2022/10/09 03:11:09;;;;;;;0.00;0.00;;;9.70;99.90;;;;;;5018812;28;20235;-86
2022/10/09 03:13:38;;;;;;;0.00;0.00;;;9.70;99.90;;;;;;5019543;28;20269;-86
2022/10/09 03:16:09;;;;;;;0.00;0.00;;;9.70;99.90;;;;;;5019097;28;20257;-86
2022/10/09 03:18:37;;;;;;;0.00;0.00;;;9.70;99.90;;;;;;5018943;28;20439;-85
2022/10/09 03:21:09;;;;;;;0.00;0.00;;;9.70;99.90;;;;;;5019545;28;20466;-86
2022/10/09 03:23:37;;;;;;;0.00;0.00;;;9.70;99.90;;;;;;5019463;28;20524;-86
2022/10/09 03:26:07;;;;;;;0.00;0.00;;;9.70;99.90;;;;;;5019072;28;20477;-85
2022/10/09 03:28:36;;;;;;;0.00;0.00;;;9.60;99.90;;;;;;5036472;28;20469;-86
2022/10/09 03:31:04;;;;;;;0.00;0.00;;;9.60;99.90;;;;;;5039093;28;20222;-85
2022/10/09 03:33:36;;;;;;;0.00;0.00;;;9.50;99.90;;;;;;5038775;28;20472;-85
2022/10/09 03:36:04;;;;;;;0.00;0.00;;;9.50;99.90;;;;;;5038782;28;20619;-85
2022/10/09 03:38:34;;;;;;;0.00;0.00;;;9.40;99.90;;;;;;5039229;28;20457;-86
2022/10/09 03:41:03;;;;;;;0.00;0.00;;;9.30;99.90;;;;;;5038542;28;20689;-85
2022/10/09 03:43:32;;;;;;;0.00;0.00;;;9.30;99.90;;;;;;5038939;28;20205;-85
2022/10/09 03:46:03;;;;;;;0.00;0.00;;;9.20;99.90;;;;;;5038430;28;20198;-86
2022/10/09 03:48:31;;;;;;;0.00;0.00;;;9.10;99.90;;;;;;5039531;28;20191;-86
2022/10/09 03:50:59;;;;;;;0.00;0.00;;;9.10;99.90;;;;;;5037863;28;20226;-86
2022/10/09 03:53:27;;;;;;;0.00;0.00;;;9.10;99.90;;;;;;5039863;28;20727;-86
2022/10/09 03:55:56;;;;;;;0.00;0.00;;;9.00;99.90;;;;;;5038814;28;20206;-86
2022/10/09 03:58:24;;;;;;;0.00;0.00;;;8.90;99.90;;;;;;5039528;28;20202;-86
2022/10/09 04:00:53;;;;;;;0.00;0.00;;;8.90;99.90;;;;;;5033290;28;20238;-86
2022/10/09 04:03:21;;;;;;;0.00;0.00;;;8.90;99.90;;;;;;5038428;28;20202;-85
2022/10/09 04:05:49;;;;;;;0.00;0.00;;;8.90;99.90;;;;;;5020783;28;20234;-86
2022/10/09 04:08:17;;;;;;;0.00;0.00;;;8.80;99.90;;;;;;5019780;28;20557;-86
2022/10/09 04:10:44;;;;;;;0.00;0.00;;;8.80;99.90;;;;;;5019225;28;20235;-86
2022/10/09 04:13:14;;;;;;;0.00;0.00;;;8.70;99.90;;;;;;5019728;28;20704;-86
2022/10/09 04:15:50;;;;;;;0.00;0.00;;;8.70;99.90;;;;;;5018594;28;20571;-86
2022/10/09 04:18:17;;;;;;;0.00;0.00;;;8.60;99.90;;;;;;5018541;28;20610;-86
2022/10/09 04:20:49;;;;;;;0.00;0.00;;;8.60;99.90;;;;;;5018850;28;20231;-85
2022/10/09 04:23:22;;;;;;;0.00;0.00;;;8.60;99.90;;;;;;5018924;28;20617;-86
2022/10/09 04:25:53;;;;;;;0.00;0.00;;;8.60;99.90;;;;;;5019028;28;20696;-86
2022/10/09 04:28:22;;;;;;;0.00;0.00;;;8.50;99.90;;;;;;5018855;28;20211;-85
2022/10/09 04:30:51;;;;;;;0.00;0.00;;;8.50;99.90;;;;;;5018659;28;20227;-86
2022/10/09 04:33:19;;;;;;;0.00;0.00;;;8.50;99.90;;;;;;5019464;28;20203;-85
2022/10/09 04:35:50;;;;;;;0.00;0.00;;;8.40;99.90;;;;;;5020949;28;20214;-85
2022/10/09 04:38:18;;;;;;;0.00;0.00;;;8.40;99.90;;;;;;5022363;28;20618;-86
2022/10/09 04:40:55;;;;;;;0.00;0.00;;;8.40;99.90;;;;;;5029004;28;20223;-85
2022/10/09 04:43:25;;;;;;;0.00;0.00;;;8.40;99.90;;;;;;5019401;28;20210;-85
2022/10/09 04:45:53;;;;;;;0.00;0.00;;;8.30;99.90;;;;;;5020592;28;20203;-86
2022/10/09 04:48:21;;;;;;;0.00;0.00;;;8.30;99.90;;;;;;5020712;28;20225;-85
2022/10/09 04:50:52;;;;;;;0.00;0.00;;;8.30;99.90;;;;;;5019998;28;20222;-85
2022/10/09 04:53:21;;;;;;;0.00;0.00;;;8.30;99.90;;;;;;5018721;28;20214;-85
2022/10/09 04:55:49;;;;;;;0.00;0.00;;;8.30;99.90;;;;;;5017709;28;20210;-85
2022/10/09 04:58:17;;;;;;;0.00;0.00;;;8.30;99.90;;;;;;5018322;28;20613;-85
2022/10/09 05:00:47;;;;;;;0.00;0.00;;;8.30;99.90;;;;;;5017961;28;20223;-86
2022/10/09 05:03:15;;;;;;;0.00;0.00;;;8.20;99.90;;;;;;5022569;28;20230;-85
2022/10/09 05:05:43;;;;;;;0.00;0.00;;;8.20;99.90;;;;;;5029548;28;20199;-85
2022/10/09 05:08:11;;;;;;;0.00;0.00;;;8.20;99.90;;;;;;5035147;28;20237;-86
2022/10/09 05:10:39;;;;;;;0.00;0.00;;;8.10;99.90;;;;;;5030448;28;20234;-83
2022/10/09 05:13:06;;;;;;;0.00;0.00;;;8.10;99.90;;;;;;5029666;28;20210;-85
2022/10/09 05:15:36;;;;;;;0.00;0.00;;;8.00;99.90;;;;;;5024731;28;20617;-85
2022/10/09 05:18:05;;;;;;;0.00;0.00;;;8.00;99.90;;;;;;5039856;28;20256;-85
2022/10/09 05:20:33;;;;;;;0.00;0.00;;;8.00;99.90;;;;;;5037696;28;20241;-86
2022/10/09 05:23:01;;;;;;;0.00;0.00;;;8.00;99.90;;;;;;5042250;28;20210;-87
2022/10/09 05:25:29;;;;;;;0.00;0.00;;;8.00;99.90;;;;;;5063954;28;20212;-86
2022/10/09 05:27:56;;;;;;;0.00;0.00;;;8.00;99.90;;;;;;5060724;28;20203;-86
2022/10/09 05:30:24;;;;;;;0.00;0.00;;;7.90;99.90;;;;;;5049037;28;20216;-85
2022/10/09 05:32:52;;;;;;;0.00;0.00;;;7.90;99.90;;;;;;5053790;28;20194;-85
2022/10/09 05:35:21;;;;;;;0.00;0.00;;;7.90;99.90;;;;;;5052036;28;20211;-84
2022/10/09 05:37:49;;;;;;;0.00;0.00;;;7.90;99.90;;;;;;5048273;28;20210;-87
2022/10/09 05:40:17;;;;;;;0.00;0.00;;;7.80;99.90;;;;;;5041275;28;20233;-87
2022/10/09 05:42:44;;;;;;;0.00;0.00;;;7.80;99.90;;;;;;5032839;28;20206;-85
2022/10/09 05:45:13;;;;;;;0.00;0.00;;;7.80;99.90;;;;;;5030949;28;20221;-87
2022/10/09 05:47:40;;;;;;;0.00;0.00;;;7.80;99.90;;;;;;5041189;28;20233;-86
2022/10/09 05:50:09;;;;;;;0.00;0.00;;;7.80;99.90;;;;;;5040540;28;20237;-86
2022/10/09 05:52:38;;;;;;;0.00;0.00;;;7.80;99.90;;;;;;5021302;28;20694;-87
2022/10/09 05:55:07;;;;;;;0.00;0.00;;;7.80;99.90;;;;;;5020711;28;20199;-87
2022/10/09 05:57:35;;;;;;;0.00;0.00;;;7.90;99.90;;;;;;5020333;28;20215;-88
2022/10/09 06:00:03;;;;;;;0.00;0.00;;;8.00;99.90;;;;;;5020541;28;20302;-87
2022/10/09 06:02:31;;;;;;;0.00;0.00;;;8.00;99.90;;;;;;5021516;28;20214;-88
2022/10/09 06:04:59;;;;;;;0.00;0.00;;;8.00;99.90;;;;;;5020923;28;20294;-86
2022/10/09 06:07:27;;;;;;;0.00;0.00;;;8.00;99.90;;;;;;5021385;28;20695;-86
2022/10/09 06:09:59;;;;;;;0.00;0.00;;;8.10;99.90;;;;;;5030844;28;20233;-86
2022/10/09 06:12:28;;;;;;;0.00;0.00;;;8.10;99.90;;;;;;5031721;28;20208;-86
2022/10/09 06:14:59;;;;;;;0.00;0.00;;;8.10;99.90;;;;;;5022426;28;20207;-86
2022/10/09 06:17:27;;;;;;;0.00;0.00;;;8.10;99.90;;;;;;5022583;28;20206;-85
2022/10/09 06:19:55;;;;;;;0.00;0.00;;;8.00;99.90;;;;;;5022167;28;20239;-86
2022/10/09 06:22:28;;;;;;;0.00;0.00;;;8.00;99.90;;;;;;5021303;28;20671;-85
2022/10/09 06:24:58;;;;;;;0.00;0.00;;;8.00;99.90;;;;;;5020786;28;20511;-85
2022/10/09 06:27:28;;;;;;;0.00;0.00;;;7.90;99.90;;;;;;5020236;28;20203;-85
2022/10/09 06:29:56;;;;;;;0.00;0.00;;;7.90;99.90;;;;;;5038147;28;20225;-86
2022/10/09 06:32:23;;;;;;;0.00;0.00;;;8.00;99.90;;;;;;5059687;28;20225;-85
2022/10/09 06:34:53;;;;;;;0.00;0.00;;;7.90;99.90;;;;;;5041061;28;20676;-85
2022/10/09 06:37:21;;;;;;;0.00;0.00;;;8.00;99.90;;;;;;5035616;28;20207;-85
2022/10/09 06:39:49;;;;;;;0.00;0.00;;;8.00;99.90;;;;;;5019274;28;20219;-85
2022/10/09 06:42:18;;;;;;;0.00;0.00;;;8.00;99.90;;;;;;5020724;28;20270;-85
2022/10/09 06:44:46;;;;;;;0.00;0.00;;;8.00;99.90;;;;;;5020871;28;20206;-85
2022/10/09 06:47:14;;;;;;;0.00;0.00;;;8.10;99.90;;;;;;5020787;28;20211;-85
2022/10/09 06:49:42;;;;;;;0.00;0.00;;;8.10;99.90;;;;;;5019875;28;20286;-85
2022/10/09 06:52:09;;;;;;;0.00;0.00;;;8.30;99.90;;;;;;5019800;28;20670;-85
2022/10/09 06:54:38;;;;;;;0.00;0.00;;;8.30;99.90;;;;;;5018410;28;20223;-84
2022/10/09 06:57:05;;;;;;;0.00;0.00;;;8.40;99.90;;;;;;5019085;28;20577;-84
2022/10/09 06:59:35;;;;;;;0.00;0.00;;;8.50;99.90;;;;;;5029805;28;20227;-84
2022/10/09 07:02:03;;;;;;;0.00;0.00;;;8.60;99.90;;;;;;5039306;28;20245;-84
2022/10/09 07:04:31;;;;;;;0.00;0.00;;;8.70;99.90;;;;;;5039909;28;20216;-86
2022/10/09 07:06:59;;;;;;;0.00;0.00;;;8.80;99.90;;;;;;5040529;28;20202;-83
2022/10/09 07:09:28;;;;;;;0.00;0.00;;;8.80;99.90;;;;;;5031578;28;20226;-86
2022/10/09 07:11:56;;;;;;;0.00;0.00;;;8.90;99.90;;;;;;5021383;28;20330;-85
2022/10/09 07:14:24;;;;;;;0.00;0.00;;;9.00;99.90;;;;;;5048686;28;20198;-85
2022/10/09 07:16:55;;;;;;;0.00;0.00;;;9.00;99.90;;;;;;5048463;28;20265;-86
2022/10/09 07:19:23;;;;;;;0.00;0.00;;;9.10;99.90;;;;;;5040011;28;20226;-86
2022/10/09 07:21:51;;;;;;;0.00;0.00;;;9.20;99.90;;;;;;5039063;28;20218;-86
2022/10/09 07:24:20;;;;;;;0.00;0.00;;;9.30;99.90;;;;;;5038052;28;20214;-86
2022/10/09 07:26:48;;;;;;;0.00;0.00;;;9.30;99.90;;;;;;5038127;28;20202;-86
2022/10/09 07:29:20;;;;;;;0.00;0.00;;;9.40;99.90;;;;;;5039391;28;20215;-86
2022/10/09 07:31:49;;;;;;;0.00;0.00;;;9.40;99.90;;;;;;5039394;28;20219;-85
2022/10/09 07:34:19;;;;;;;0.00;0.00;;;9.50;99.90;;;;;;5038940;28;20210;-86
2022/10/09 07:36:47;;;;;;;0.00;0.00;;;9.50;99.90;;;;;;5038309;28;20194;-87
2022/10/09 07:39:17;;;;;;;0.00;0.00;;;9.60;99.90;;;;;;5038172;28;20226;-86
2022/10/09 07:41:46;;;;;;;0.00;0.00;;;9.70;99.90;;;;;;5038853;28;20269;-86
2022/10/09 07:44:17;;;;;;;0.00;0.00;;;9.80;99.90;;;;;;5038484;28;20468;-87
2022/10/09 07:46:45;;;;;;;0.00;0.00;;;9.80;99.90;;;;;;5041414;28;20547;-87
2022/10/09 07:49:13;;;;;;;0.00;0.00;;;9.80;99.90;;;;;;5040844;28;20461;-86
2022/10/09 07:51:44;;;;;;;0.00;0.00;;;9.90;99.90;;;;;;5041385;28;20484;-86
2022/10/09 07:54:14;;;;;;;0.00;0.00;;;9.90;99.90;;;;;;5032661;28;20213;-86
2022/10/09 07:56:42;;;;;;;0.00;0.00;;;9.90;99.90;;;;;;5031821;28;20446;-86
2022/10/09 07:59:13;;;;;;;0.00;0.00;;;10.00;99.90;;;;;;5023290;28;20460;-86
2022/10/09 08:01:42;;;;;;;0.00;0.00;;;10.00;99.90;;;;;;5022908;28;20771;-87
2022/10/09 08:04:39;;;;;;;0.00;0.00;;;10.10;99.90;;;;;;5038465;28;20440;-86
2022/10/09 08:07:09;;;;;;;0.00;0.00;;;10.10;99.90;;;;;;5038086;28;20222;-85
2022/10/09 08:09:38;;;;;;;0.00;0.00;;;10.20;99.90;;;;;;5038026;28;20859;-86
2022/10/09 08:12:06;;;;;;;0.00;0.00;;;10.20;99.90;;;;;;5038535;28;20531;-86
2022/10/09 08:14:51;;;;;;;0.00;0.00;;;10.30;99.90;;;;;;5037904;28;20456;-85
2022/10/09 08:17:22;;;;;;;0.00;0.00;;;10.30;99.90;;;;;;5042224;28;20449;-86
2022/10/09 08:19:50;;;;;;;0.00;0.00;;;10.40;99.90;;;;;;5037624;28;20457;-85
2022/10/09 08:22:19;;;;;;;0.00;0.00;;;10.50;99.90;;;;;;5020057;28;20442;-87
2022/10/09 08:24:48;;;;;;;0.00;0.00;;;10.60;99.90;;;;;;5019325;28;20933;-87
2022/10/09 08:27:17;;;;;;;0.00;0.00;;;10.60;99.90;;;;;;5022067;28;20810;-87
2022/10/09 08:29:45;;;;;;;0.00;0.00;;;10.70;99.90;;;;;;5033721;28;20461;-88
2022/10/09 08:32:13;;;;;;;0.00;0.00;;;10.80;99.90;;;;;;5020410;28;20478;-87
2022/10/09 08:34:44;;;;;;;0.00;0.00;;;10.80;99.90;;;;;;5020990;28;20457;-89
2022/10/09 08:37:12;;;;;;;0.00;0.00;;;10.90;99.90;;;;;;5019550;28;20484;-85
2022/10/09 08:39:56;;;;;;;0.00;0.00;;;11.00;99.90;;;;;;5018324;28;20466;-86
2022/10/09 08:42:36;;;;;;;0.00;0.00;;;11.10;99.90;;;;;;5026561;28;20438;-85
2022/10/09 08:45:05;;;;;;;0.00;0.00;;;11.10;99.90;;;;;;5018455;28;20450;-84
2022/10/09 08:47:40;;;;;;;0.00;0.00;;;11.20;99.90;;;;;;5016798;28;20466;-86
2022/10/09 08:50:16;;;;;;;0.00;0.00;;;11.30;99.90;;;;;;5019590;28;20478;-84
2022/10/09 08:52:48;;;;;;;0.00;0.00;;;11.30;99.90;;;;;;5033500;28;20486;-85
2022/10/09 08:55:24;;;;;;;0.00;0.00;;;11.40;99.90;;;;;;5037907;28;20417;-85
2022/10/09 08:58:03;;;;;;;0.00;0.00;;;11.50;99.90;;;;;;5037488;28;20464;-84
2022/10/09 09:00:39;;;;;;;0.00;0.00;;;11.60;99.90;;;;;;5033988;28;20469;-83
2022/10/09 09:03:42;;;;;;;0.00;0.00;;;11.70;99.90;;;;;;5018460;28;20468;-88
2022/10/09 09:06:14;;;;;;;0.00;0.00;;;11.70;99.90;;;;;;5018677;28;20469;-89
2022/10/09 09:08:55;;;;;;;0.00;0.00;;;11.80;99.90;;;;;;5042210;28;20473;-91
2022/10/09 09:11:41;;;;;;;0.00;0.00;;;11.80;99.90;;;;;;5043498;28;20495;-87
2022/10/09 09:14:34;;;;;;;0.00;0.00;;;11.90;99.90;;;;;;5018393;28;20484;-87
2022/10/09 09:17:14;;;;;;;0.00;0.00;;;11.90;99.90;;;;;;5024143;28;20488;-87
2022/10/09 09:20:10;;;;;;;0.00;0.00;;;12.00;99.90;;;;;;5018628;28;20933;-87
2022/10/09 09:22:49;;;;;;;0.00;0.00;;;12.00;99.90;;;;;;5029417;28;20481;-89
2022/10/09 09:25:22;;;;;;;0.00;0.00;;;12.00;99.90;;;;;;5023592;28;20450;-87
2022/10/09 09:28:00;;;;;;;0.00;0.00;;;12.00;99.90;;;;;;5018807;28;20419;-83
2022/10/09 09:30:31;;;;;;;0.00;0.00;;;12.10;99.90;;;;;;5018840;28;20478;-84
2022/10/09 09:33:08;;;;;;;0.00;0.00;;;12.20;99.90;;;;;;5018393;28;20482;-84
2022/10/09 09:35:45;;;;;;;0.00;0.00;;;12.20;99.90;;;;;;5018563;28;20434;-84
2022/10/09 09:38:19;;;;;;;0.00;0.00;;;12.20;99.90;;;;;;5018725;28;20430;-85
2022/10/09 09:40:52;;;;;;;0.00;0.00;;;12.10;99.90;;;;;;5018595;28;20462;-85
2022/10/09 09:43:34;;;;;;;0.00;0.00;;;12.20;99.90;;;;;;5016676;28;20470;-85
2022/10/09 09:46:02;;;;;;;0.00;0.00;;;12.20;99.90;;;;;;5019026;28;20450;-85
2022/10/09 09:48:36;;;;;;;0.00;0.00;;;12.30;99.90;;;;;;5019247;28;20456;-86
2022/10/09 09:51:13;;;;;;;0.00;0.00;;;12.40;99.90;;;;;;5022053;28;20470;-85
2022/10/09 09:53:58;;;;;;;0.00;0.00;;;12.50;99.90;;;;;;5021253;28;20493;-86
2022/10/09 09:56:36;;;;;;;0.00;0.00;;;12.60;99.90;;;;;;5021964;28;20462;-84
2022/10/09 09:59:36;;;;;;;0.00;0.00;;;12.60;99.90;;;;;;5020042;28;20465;-84
2022/10/09 10:02:12;;;;;;;0.00;0.00;;;12.60;99.90;;;;;;5022177;28;20453;-85
2022/10/09 10:04:59;;;;;;;0.00;0.00;;;12.70;99.90;;;;;;5022069;28;20418;-86
2022/10/09 10:07:32;;;;;;;0.00;0.00;;;12.70;99.90;;;;;;5022123;28;20492;-84
2022/10/09 10:10:14;;;;;;;0.00;0.00;;;12.80;99.90;;;;;;5042679;28;20464;-85
2022/10/09 10:12:44;;;;;;;0.00;0.00;;;12.90;99.90;;;;;;5041692;28;20447;-85
2022/10/09 10:15:25;;;;;;;0.00;0.00;;;13.00;99.90;;;;;;5042168;28;20425;-85
2022/10/09 10:18:05;;;;;;;0.00;0.00;;;13.00;99.90;;;;;;5042234;28;20528;-86
2022/10/09 10:20:48;;;;;;;0.00;0.00;;;13.10;99.90;;;;;;5042889;28;20538;-85
2022/10/09 10:23:31;;;;;;;0.00;0.00;;;13.10;99.90;;;;;;5044041;28;20452;-85
2022/10/09 10:26:08;;;;;;;0.00;0.00;;;13.10;99.90;;;;;;5038434;28;20450;-82
2022/10/09 10:28:45;;;;;;;0.00;0.00;;;13.10;99.90;;;;;;5038334;28;20437;-85
2022/10/09 10:31:32;;;;;;;0.00;0.00;;;13.20;99.90;;;;;;5026976;28;20473;-84
2022/10/09 10:34:14;;;;;;;0.00;0.00;;;13.20;99.90;;;;;;5023507;28;20474;-85
2022/10/09 10:36:53;;;;;;;0.00;0.00;;;13.30;99.90;;;;;;5026134;28;20931;-85
2022/10/09 10:39:37;;;;;;;0.00;0.00;;;13.40;99.90;;;;;;5043904;28;20527;-85
2022/10/09 10:42:11;;;;;;;0.00;0.00;;;13.50;99.90;;;;;;5043361;28;20487;-86
2022/10/09 10:44:47;;;;;;;0.00;0.00;;;13.60;99.90;;;;;;5042898;28;20526;-85
2022/10/09 10:47:21;;;;;;;0.00;0.00;;;13.60;99.90;;;;;;5044477;28;20472;-85
2022/10/09 10:49:51;;;;;;;0.00;0.00;;;13.60;99.90;;;;;;5043952;28;20491;-85
2022/10/09 10:52:33;;;;;;;0.00;0.00;;;13.70;99.90;;;;;;5046553;28;20777;-84
2022/10/09 10:55:33;;;;;;;0.00;0.00;;;13.80;99.90;;;;;;5042531;28;20560;-85
2022/10/09 10:58:15;;;;;;;0.00;0.00;;;13.90;99.90;;;;;;5030984;28;20473;-85
2022/10/09 11:00:53;;;;;;;0.00;0.00;;;14.10;99.90;;;;;;5040666;28;20485;-85
2022/10/09 11:03:40;;;;;;;0.00;0.00;;;14.20;99.90;;;;;;5040536;28;20476;-85
2022/10/09 11:06:19;;;;;;;0.00;0.00;;;14.40;99.90;;;;;;5040575;28;20426;-85
2022/10/09 11:09:04;;;;;;;0.00;0.00;;;14.50;99.90;;;;;;5039312;28;20468;-86
2022/10/09 11:11:39;;;;;;;0.00;0.00;;;14.50;99.90;;;;;;5038672;28;20452;-87
2022/10/09 11:14:25;;;;;;;0.00;0.00;;;14.60;99.90;;;;;;5038157;28;20461;-87
2022/10/09 11:20:51;;;;;;;0.00;0.00;;;14.80;99.90;;;;;;5016488;28;20480;-86
2022/10/09 11:23:53;;;;;;;0.00;0.00;;;14.70;99.90;;;;;;4978987;28;20546;-91
2022/10/09 11:41:56;;;;;;;0.00;0.00;;;14.30;99.90;;;;;;4772113;30;20461;-86
2022/10/09 11:44:48;;;;;;;0.00;0.00;;;14.30;99.90;;;;;;4845255;29;20488;-87
2022/10/09 11:47:23;;;;;;;0.00;0.00;;;14.30;99.90;;;;;;4860735;29;20483;-86
2022/10/09 11:50:20;;;;;;;0.00;0.00;;;14.40;99.90;;;;;;4880751;29;20570;-87
2022/10/09 11:57:07;;;;;;;0.00;0.00;;;14.50;99.90;;;;;;4958406;28;20447;-87
2022/10/09 11:59:46;;;;;;;0.00;0.00;;;14.60;99.90;;;;;;4998138;22;21076;-77
2022/10/09 12:02:25;;;;;;;0.00;0.00;;;14.70;99.90;;;;;;5045417;28;20449;-77
2022/10/09 12:04:53;;;;;;;0.00;0.00;;;14.70;99.90;;;;;;5039764;28;20975;-77
2022/10/09 12:07:32;;;;;;;0.00;0.00;;;14.90;99.90;;;;;;5033640;28;20480;-75
2022/10/09 12:10:04;;;;;;;0.00;0.00;;;15.10;99.90;;;;;;5033457;28;20455;-74
2022/10/09 12:12:33;;;;;;;0.00;0.00;;;15.30;99.90;;;;;;5043199;28;20452;-75
2022/10/09 12:15:23;;;;;;;0.00;0.00;;;15.50;99.90;;;;;;5052870;28;20506;-75
2022/10/09 12:17:51;;;;;;;0.00;0.00;;;15.70;99.90;;;;;;5053007;28;20506;-75
2022/10/09 12:20:22;;;;;;;0.00;0.00;;;15.90;99.90;;;;;;5053053;28;20522;-75
2022/10/09 12:22:55;;;;;;;0.00;0.00;;;16.00;99.90;;;;;;5044572;28;20467;-75
2022/10/09 12:25:45;;;;;;;0.00;0.00;;;16.00;99.90;;;;;;5033219;28;20438;-76
2022/10/09 12:28:21;;;;;;;0.00;0.00;;;16.00;99.90;;;;;;5032934;28;20446;-78
2022/10/09 12:30:51;;;;;;;0.00;0.00;;;16.10;99.90;;;;;;5033422;28;20457;-77
2022/10/09 12:33:25;;;;;;;0.00;0.00;;;16.00;99.90;;;;;;5043902;28;20539;-77
2022/10/09 12:36:03;;;;;;;0.00;0.00;;;16.00;99.90;;;;;;5056671;28;20541;-76
2022/10/09 12:38:32;;;;;;;0.00;0.00;;;16.00;99.90;;;;;;5052669;28;20993;-76
2022/10/09 12:41:02;;;;;;;0.00;0.00;;;15.90;99.90;;;;;;5052609;28;20461;-76
2022/10/09 12:43:31;;;;;;;0.00;0.00;;;16.00;99.90;;;;;;5052609;28;20440;-78
2022/10/09 12:46:01;;;;;;;0.00;0.00;;;16.00;99.90;;;;;;5052711;28;20440;-75
2022/10/09 12:48:36;;;;;;;0.00;0.00;;;16.00;99.90;;;;;;5052620;28;20421;-75
2022/10/09 12:51:14;;;;;;;0.00;0.00;;;16.10;99.90;;;;;;5051437;28;20488;-76
2022/10/09 12:53:47;;;;;;;0.00;0.00;;;16.10;99.90;;;;;;5050144;28;20475;-75
2022/10/09 12:56:21;;;;;;;0.00;0.00;;;16.10;99.90;;;;;;5034065;28;20446;-75
2022/10/09 12:58:49;;;;;;;0.00;0.00;;;16.00;99.90;;;;;;5030913;28;20433;-77
2022/10/09 13:01:19;;;;;;;0.00;0.00;;;16.00;99.90;;;;;;5032376;28;20476;-77
2022/10/09 13:03:55;;;;;;;0.00;0.00;;;16.00;99.90;;;;;;5032040;28;20434;-77
2022/10/09 13:06:27;;;;;;;0.00;0.00;;;15.90;99.90;;;;;;5033705;28;20498;-76
2022/10/09 13:08:57;;;;;;;0.00;0.00;;;15.90;99.90;;;;;;5032916;28;20437;-76
2022/10/09 13:11:33;;;;;;;0.00;0.00;;;15.90;99.90;;;;;;5032978;28;20865;-76
2022/10/09 13:14:01;;;;;;;0.00;0.00;;;15.80;99.90;;;;;;5033456;28;20475;-76
2022/10/09 13:16:40;;;;;;;0.00;0.00;;;15.90;99.90;;;;;;5032633;28;20443;-76
2022/10/09 13:19:22;;;;;;;0.00;0.00;;;15.90;99.90;;;;;;5032655;28;20531;-76
2022/10/09 13:22:01;;;;;;;0.00;0.00;;;15.80;99.90;;;;;;5032110;28;20446;-76
2022/10/09 13:24:29;;;;;;;0.00;0.00;;;15.80;99.90;;;;;;5036582;28;20441;-76
2022/10/09 13:26:57;;;;;;;0.00;0.00;;;15.80;99.90;;;;;;5035968;28;20444;-76
2022/10/09 13:29:24;;;;;;;0.00;0.00;;;15.80;99.90;;;;;;5035996;28;20452;-76
2022/10/09 13:31:54;;;;;;;0.00;0.00;;;15.80;99.90;;;;;;5036677;28;20445;-76
2022/10/09 13:34:22;;;;;;;0.00;0.00;;;15.80;99.90;;;;;;5036165;28;20998;-76
2022/10/09 13:36:50;;;;;;;0.00;0.00;;;15.80;99.90;;;;;;5036305;28;20441;-76
2022/10/09 13:39:18;;;;;;;0.00;0.00;;;15.80;99.90;;;;;;5035765;28;20441;-76
2022/10/09 13:41:48;;;;;;;0.00;0.00;;;15.80;99.90;;;;;;5036240;28;20456;-76
2022/10/09 13:44:16;;;;;;;0.00;0.00;;;15.70;99.90;;;;;;5036115;28;20459;-75
2022/10/09 13:46:44;;;;;;;0.00;0.00;;;15.70;99.90;;;;;;5036011;28;20449;-76